sensor_id;sensor_type;location;lat;lon;timestamp;P1;durP1;ratioP1;P2;durP2;ratioP2
59294;SDS011;45067;44.654;20.200;2022-09-17T00:00:42;16.52;;;11.40;;
59294;SDS011;45067;44.654;20.200;2022-09-17T00:03:09;15.30;;;10.60;;
59294;SDS011;45067;44.654;20.200;2022-09-17T00:05:35;14.38;;;10.75;;
59294;SDS011;45067;44.654;20.200;2022-09-17T00:08:09;12.88;;;10.02;;
59294;SDS011;45067;44.654;20.200;2022-09-17T00:10:37;17.45;;;11.15;;
59294;SDS011;45067;44.654;20.200;2022-09-17T00:13:04;16.90;;;11.85;;
59294;SDS011;45067;44.654;20.200;2022-09-17T00:15:30;16.55;;;12.38;;
59294;SDS011;45067;44.654;20.200;2022-09-17T00:17:56;16.15;;;11.75;;
59294;SDS011;45067;44.654;20.200;2022-09-17T00:20:23;15.50;;;11.25;;
59294;SDS011;45067;44.654;20.200;2022-09-17T00:22:50;14.80;;;11.65;;
59294;SDS011;45067;44.654;20.200;2022-09-17T00:25:16;17.08;;;12.93;;
59294;SDS011;45067;44.654;20.200;2022-09-17T00:27:43;18.58;;;13.48;;
59294;SDS011;45067;44.654;20.200;2022-09-17T00:30:09;21.40;;;11.68;;
59294;SDS011;45067;44.654;20.200;2022-09-17T00:32:36;15.00;;;11.90;;
59294;SDS011;45067;44.654;20.200;2022-09-17T00:35:02;16.25;;;11.35;;
59294;SDS011;45067;44.654;20.200;2022-09-17T00:37:37;20.80;;;13.43;;
59294;SDS011;45067;44.654;20.200;2022-09-17T00:40:03;19.75;;;14.25;;
59294;SDS011;45067;44.654;20.200;2022-09-17T00:42:30;21.83;;;14.18;;
59294;SDS011;45067;44.654;20.200;2022-09-17T00:44:56;21.50;;;13.50;;
59294;SDS011;45067;44.654;20.200;2022-09-17T00:47:40;19.25;;;13.77;;
59294;SDS011;45067;44.654;20.200;2022-09-17T00:52:46;17.70;;;12.45;;
59294;SDS011;45067;44.654;20.200;2022-09-17T00:57:41;18.38;;;13.60;;
59294;SDS011;45067;44.654;20.200;2022-09-17T01:00:10;23.10;;;16.55;;
59294;SDS011;45067;44.654;20.200;2022-09-17T01:02:37;23.60;;;17.08;;
59294;SDS011;45067;44.654;20.200;2022-09-17T01:05:03;19.00;;;13.75;;
59294;SDS011;45067;44.654;20.200;2022-09-17T01:09:58;16.70;;;12.23;;
59294;SDS011;45067;44.654;20.200;2022-09-17T01:12:30;21.13;;;12.68;;
59294;SDS011;45067;44.654;20.200;2022-09-17T01:15:03;16.90;;;12.70;;
59294;SDS011;45067;44.654;20.200;2022-09-17T01:38:36;10.43;;;7.80;;
59294;SDS011;45067;44.654;20.200;2022-09-17T01:50:18;10.73;;;6.95;;
59294;SDS011;45067;44.654;20.200;2022-09-17T01:52:47;8.05;;;5.70;;
59294;SDS011;45067;44.654;20.200;2022-09-17T01:55:16;8.40;;;4.78;;
59294;SDS011;45067;44.654;20.200;2022-09-17T01:57:53;13.07;;;7.30;;
59294;SDS011;45067;44.654;20.200;2022-09-17T02:00:20;12.15;;;4.93;;
59294;SDS011;45067;44.654;20.200;2022-09-17T02:03:01;7.95;;;4.82;;
59294;SDS011;45067;44.654;20.200;2022-09-17T02:08:04;13.93;;;4.97;;
59294;SDS011;45067;44.654;20.200;2022-09-17T02:10:33;7.55;;;4.32;;
59294;SDS011;45067;44.654;20.200;2022-09-17T02:13:02;7.00;;;4.07;;
59294;SDS011;45067;44.654;20.200;2022-09-17T02:15:33;7.13;;;3.58;;
59294;SDS011;45067;44.654;20.200;2022-09-17T02:18:24;6.75;;;4.00;;
59294;SDS011;45067;44.654;20.200;2022-09-17T02:20:49;6.95;;;4.13;;
59294;SDS011;45067;44.654;20.200;2022-09-17T02:23:20;8.00;;;3.43;;
59294;SDS011;45067;44.654;20.200;2022-09-17T02:25:58;5.65;;;3.90;;
59294;SDS011;45067;44.654;20.200;2022-09-17T02:31:10;5.22;;;3.22;;
59294;SDS011;45067;44.654;20.200;2022-09-17T02:33:37;7.63;;;3.75;;
59294;SDS011;45067;44.654;20.200;2022-09-17T02:36:04;6.25;;;3.30;;
59294;SDS011;45067;44.654;20.200;2022-09-17T02:38:32;5.82;;;3.17;;
59294;SDS011;45067;44.654;20.200;2022-09-17T02:41:04;6.05;;;3.05;;
59294;SDS011;45067;44.654;20.200;2022-09-17T02:43:37;6.03;;;2.75;;
59294;SDS011;45067;44.654;20.200;2022-09-17T02:49:05;6.82;;;2.90;;
59294;SDS011;45067;44.654;20.200;2022-09-17T02:51:38;5.80;;;2.92;;
59294;SDS011;45067;44.654;20.200;2022-09-17T02:59:28;5.35;;;2.85;;
59294;SDS011;45067;44.654;20.200;2022-09-17T03:02:10;6.65;;;3.10;;
59294;SDS011;45067;44.654;20.200;2022-09-17T03:04:37;3.63;;;2.65;;
59294;SDS011;45067;44.654;20.200;2022-09-17T03:07:08;4.57;;;2.67;;
59294;SDS011;45067;44.654;20.200;2022-09-17T03:09:39;4.82;;;2.92;;
59294;SDS011;45067;44.654;20.200;2022-09-17T03:12:05;4.80;;;2.60;;
59294;SDS011;45067;44.654;20.200;2022-09-17T03:14:31;5.82;;;3.22;;
59294;SDS011;45067;44.654;20.200;2022-09-17T03:16:58;5.75;;;3.35;;
59294;SDS011;45067;44.654;20.200;2022-09-17T03:19:24;5.03;;;3.42;;
59294;SDS011;45067;44.654;20.200;2022-09-17T03:21:52;5.25;;;2.67;;
59294;SDS011;45067;44.654;20.200;2022-09-17T03:24:18;4.75;;;3.08;;
59294;SDS011;45067;44.654;20.200;2022-09-17T03:26:44;7.70;;;4.53;;
59294;SDS011;45067;44.654;20.200;2022-09-17T03:29:14;5.97;;;3.05;;
59294;SDS011;45067;44.654;20.200;2022-09-17T03:31:40;12.13;;;6.45;;
59294;SDS011;45067;44.654;20.200;2022-09-17T03:34:06;6.75;;;3.75;;
59294;SDS011;45067;44.654;20.200;2022-09-17T03:36:32;5.50;;;3.47;;
59294;SDS011;45067;44.654;20.200;2022-09-17T03:38:58;7.28;;;4.10;;
59294;SDS011;45067;44.654;20.200;2022-09-17T03:41:25;6.55;;;3.53;;
59294;SDS011;45067;44.654;20.200;2022-09-17T03:43:51;7.00;;;3.95;;
59294;SDS011;45067;44.654;20.200;2022-09-17T03:46:17;5.95;;;3.42;;
59294;SDS011;45067;44.654;20.200;2022-09-17T03:48:43;4.72;;;3.38;;
59294;SDS011;45067;44.654;20.200;2022-09-17T03:51:09;7.03;;;4.15;;
59294;SDS011;45067;44.654;20.200;2022-09-17T03:53:36;7.80;;;4.45;;
59294;SDS011;45067;44.654;20.200;2022-09-17T03:56:02;10.05;;;3.45;;
59294;SDS011;45067;44.654;20.200;2022-09-17T03:58:32;6.22;;;3.30;;
59294;SDS011;45067;44.654;20.200;2022-09-17T04:00:58;6.82;;;2.83;;
59294;SDS011;45067;44.654;20.200;2022-09-17T04:03:25;4.85;;;3.08;;
59294;SDS011;45067;44.654;20.200;2022-09-17T04:05:51;5.47;;;3.50;;
59294;SDS011;45067;44.654;20.200;2022-09-17T04:08:29;7.05;;;4.07;;
59294;SDS011;45067;44.654;20.200;2022-09-17T04:10:56;6.28;;;3.50;;
59294;SDS011;45067;44.654;20.200;2022-09-17T04:13:22;5.32;;;3.55;;
59294;SDS011;45067;44.654;20.200;2022-09-17T04:15:49;6.05;;;3.40;;
59294;SDS011;45067;44.654;20.200;2022-09-17T04:18:16;6.07;;;3.33;;
59294;SDS011;45067;44.654;20.200;2022-09-17T04:20:42;6.32;;;3.92;;
59294;SDS011;45067;44.654;20.200;2022-09-17T04:23:09;6.88;;;3.65;;
59294;SDS011;45067;44.654;20.200;2022-09-17T04:25:36;5.95;;;3.50;;
59294;SDS011;45067;44.654;20.200;2022-09-17T04:28:02;6.55;;;3.47;;
59294;SDS011;45067;44.654;20.200;2022-09-17T04:30:28;7.95;;;3.60;;
59294;SDS011;45067;44.654;20.200;2022-09-17T04:32:54;7.40;;;3.88;;
59294;SDS011;45067;44.654;20.200;2022-09-17T04:35:20;7.53;;;4.05;;
59294;SDS011;45067;44.654;20.200;2022-09-17T04:38:05;7.13;;;3.78;;
59294;SDS011;45067;44.654;20.200;2022-09-17T04:40:31;5.65;;;3.38;;
59294;SDS011;45067;44.654;20.200;2022-09-17T04:42:58;6.72;;;3.55;;
59294;SDS011;45067;44.654;20.200;2022-09-17T04:45:27;5.13;;;3.00;;
59294;SDS011;45067;44.654;20.200;2022-09-17T04:47:53;6.32;;;4.18;;
59294;SDS011;45067;44.654;20.200;2022-09-17T04:50:20;5.85;;;3.30;;
59294;SDS011;45067;44.654;20.200;2022-09-17T04:52:46;6.85;;;3.47;;
59294;SDS011;45067;44.654;20.200;2022-09-17T04:55:13;7.40;;;3.35;;
59294;SDS011;45067;44.654;20.200;2022-09-17T04:57:44;5.25;;;3.25;;
59294;SDS011;45067;44.654;20.200;2022-09-17T05:00:11;6.80;;;3.95;;
59294;SDS011;45067;44.654;20.200;2022-09-17T05:02:37;4.03;;;2.90;;
59294;SDS011;45067;44.654;20.200;2022-09-17T05:05:03;5.20;;;3.30;;
59294;SDS011;45067;44.654;20.200;2022-09-17T05:07:29;5.20;;;3.40;;
59294;SDS011;45067;44.654;20.200;2022-09-17T05:09:56;5.47;;;3.25;;
59294;SDS011;45067;44.654;20.200;2022-09-17T05:12:22;8.63;;;3.53;;
59294;SDS011;45067;44.654;20.200;2022-09-17T05:14:48;6.25;;;4.03;;
59294;SDS011;45067;44.654;20.200;2022-09-17T05:17:14;8.35;;;3.95;;
59294;SDS011;45067;44.654;20.200;2022-09-17T05:19:41;6.90;;;4.28;;
59294;SDS011;45067;44.654;20.200;2022-09-17T05:22:07;8.45;;;4.93;;
59294;SDS011;45067;44.654;20.200;2022-09-17T05:24:38;8.23;;;4.40;;
59294;SDS011;45067;44.654;20.200;2022-09-17T05:27:05;10.10;;;5.97;;
59294;SDS011;45067;44.654;20.200;2022-09-17T05:29:31;8.35;;;4.82;;
59294;SDS011;45067;44.654;20.200;2022-09-17T05:31:57;5.97;;;4.10;;
59294;SDS011;45067;44.654;20.200;2022-09-17T05:34:23;7.10;;;4.70;;
59294;SDS011;45067;44.654;20.200;2022-09-17T05:36:49;8.27;;;4.50;;
59294;SDS011;45067;44.654;20.200;2022-09-17T05:39:19;9.02;;;5.05;;
59294;SDS011;45067;44.654;20.200;2022-09-17T05:41:52;7.88;;;4.70;;
59294;SDS011;45067;44.654;20.200;2022-09-17T05:44:19;7.85;;;5.22;;
59294;SDS011;45067;44.654;20.200;2022-09-17T05:46:45;10.30;;;6.18;;
59294;SDS011;45067;44.654;20.200;2022-09-17T05:49:12;8.70;;;4.50;;
59294;SDS011;45067;44.654;20.200;2022-09-17T05:51:39;8.32;;;4.20;;
59294;SDS011;45067;44.654;20.200;2022-09-17T05:54:08;7.57;;;4.30;;
59294;SDS011;45067;44.654;20.200;2022-09-17T05:56:34;8.50;;;4.50;;
59294;SDS011;45067;44.654;20.200;2022-09-17T05:59:00;6.93;;;3.97;;
59294;SDS011;45067;44.654;20.200;2022-09-17T06:01:26;5.63;;;4.25;;
59294;SDS011;45067;44.654;20.200;2022-09-17T06:03:52;13.38;;;6.72;;
59294;SDS011;45067;44.654;20.200;2022-09-17T06:06:19;8.18;;;4.80;;
59294;SDS011;45067;44.654;20.200;2022-09-17T06:08:45;8.02;;;4.30;;
59294;SDS011;45067;44.654;20.200;2022-09-17T06:11:11;10.20;;;5.43;;
59294;SDS011;45067;44.654;20.200;2022-09-17T06:13:37;6.47;;;4.80;;
59294;SDS011;45067;44.654;20.200;2022-09-17T06:16:03;8.63;;;4.50;;
59294;SDS011;45067;44.654;20.200;2022-09-17T06:18:30;9.25;;;5.18;;
59294;SDS011;45067;44.654;20.200;2022-09-17T06:21:00;9.18;;;5.72;;
59294;SDS011;45067;44.654;20.200;2022-09-17T06:26:11;9.80;;;5.10;;
59294;SDS011;45067;44.654;20.200;2022-09-17T06:28:37;6.15;;;4.10;;
59294;SDS011;45067;44.654;20.200;2022-09-17T06:31:04;7.45;;;4.30;;
59294;SDS011;45067;44.654;20.200;2022-09-17T06:33:31;7.85;;;4.80;;
59294;SDS011;45067;44.654;20.200;2022-09-17T06:35:58;8.05;;;5.32;;
59294;SDS011;45067;44.654;20.200;2022-09-17T06:38:34;6.47;;;4.22;;
59294;SDS011;45067;44.654;20.200;2022-09-17T06:41:00;6.72;;;4.53;;
59294;SDS011;45067;44.654;20.200;2022-09-17T06:43:26;7.80;;;4.97;;
59294;SDS011;45067;44.654;20.200;2022-09-17T06:45:56;10.50;;;5.25;;
59294;SDS011;45067;44.654;20.200;2022-09-17T06:48:23;6.80;;;4.28;;
59294;SDS011;45067;44.654;20.200;2022-09-17T06:50:49;7.55;;;4.75;;
59294;SDS011;45067;44.654;20.200;2022-09-17T06:56:03;6.80;;;4.72;;
59294;SDS011;45067;44.654;20.200;2022-09-17T06:58:30;8.27;;;5.05;;
59294;SDS011;45067;44.654;20.200;2022-09-17T07:00:59;7.50;;;5.30;;
59294;SDS011;45067;44.654;20.200;2022-09-17T07:03:26;8.40;;;5.00;;
59294;SDS011;45067;44.654;20.200;2022-09-17T07:05:52;8.70;;;5.40;;
59294;SDS011;45067;44.654;20.200;2022-09-17T07:08:19;8.48;;;5.65;;
59294;SDS011;45067;44.654;20.200;2022-09-17T07:10:45;9.48;;;5.50;;
59294;SDS011;45067;44.654;20.200;2022-09-17T07:13:11;8.02;;;5.35;;
59294;SDS011;45067;44.654;20.200;2022-09-17T07:15:37;9.30;;;5.22;;
59294;SDS011;45067;44.654;20.200;2022-09-17T07:18:07;7.97;;;4.95;;
59294;SDS011;45067;44.654;20.200;2022-09-17T07:20:34;7.70;;;5.28;;
59294;SDS011;45067;44.654;20.200;2022-09-17T07:23:00;9.38;;;6.30;;
59294;SDS011;45067;44.654;20.200;2022-09-17T07:25:26;9.40;;;6.03;;
59294;SDS011;45067;44.654;20.200;2022-09-17T07:27:52;11.00;;;7.05;;
59294;SDS011;45067;44.654;20.200;2022-09-17T07:30:19;9.05;;;5.50;;
59294;SDS011;45067;44.654;20.200;2022-09-17T07:32:45;8.73;;;5.57;;
59294;SDS011;45067;44.654;20.200;2022-09-17T07:35:12;9.60;;;4.78;;
59294;SDS011;45067;44.654;20.200;2022-09-17T07:37:38;10.80;;;5.85;;
59294;SDS011;45067;44.654;20.200;2022-09-17T07:40:07;9.85;;;5.82;;
59294;SDS011;45067;44.654;20.200;2022-09-17T07:42:34;7.72;;;5.50;;
59294;SDS011;45067;44.654;20.200;2022-09-17T07:45:00;9.70;;;5.10;;
59294;SDS011;45067;44.654;20.200;2022-09-17T07:47:26;10.15;;;5.45;;
59294;SDS011;45067;44.654;20.200;2022-09-17T07:49:52;8.48;;;5.35;;
59294;SDS011;45067;44.654;20.200;2022-09-17T07:52:19;7.78;;;5.65;;
59294;SDS011;45067;44.654;20.200;2022-09-17T07:55:04;8.98;;;5.57;;
59294;SDS011;45067;44.654;20.200;2022-09-17T07:57:31;9.48;;;5.38;;
59294;SDS011;45067;44.654;20.200;2022-09-17T07:59:57;10.50;;;5.82;;
59294;SDS011;45067;44.654;20.200;2022-09-17T08:02:23;8.77;;;5.70;;
59294;SDS011;45067;44.654;20.200;2022-09-17T08:04:49;10.90;;;6.60;;
59294;SDS011;45067;44.654;20.200;2022-09-17T08:07:16;9.27;;;6.50;;
59294;SDS011;45067;44.654;20.200;2022-09-17T08:09:43;10.07;;;6.20;;
59294;SDS011;45067;44.654;20.200;2022-09-17T08:12:09;9.25;;;5.82;;
59294;SDS011;45067;44.654;20.200;2022-09-17T08:14:35;9.30;;;6.00;;
59294;SDS011;45067;44.654;20.200;2022-09-17T08:17:01;7.28;;;5.20;;
59294;SDS011;45067;44.654;20.200;2022-09-17T08:19:29;7.55;;;5.22;;
59294;SDS011;45067;44.654;20.200;2022-09-17T08:21:56;9.18;;;5.97;;
59294;SDS011;45067;44.654;20.200;2022-09-17T08:24:23;10.50;;;5.47;;
59294;SDS011;45067;44.654;20.200;2022-09-17T08:26:49;9.27;;;5.45;;
59294;SDS011;45067;44.654;20.200;2022-09-17T08:29:15;11.32;;;5.93;;
59294;SDS011;45067;44.654;20.200;2022-09-17T08:31:41;8.15;;;5.35;;
59294;SDS011;45067;44.654;20.200;2022-09-17T08:34:08;8.75;;;6.10;;
59294;SDS011;45067;44.654;20.200;2022-09-17T08:36:34;9.55;;;5.78;;
59294;SDS011;45067;44.654;20.200;2022-09-17T08:39:00;9.65;;;6.60;;
59294;SDS011;45067;44.654;20.200;2022-09-17T08:44:24;10.38;;;7.35;;
59294;SDS011;45067;44.654;20.200;2022-09-17T08:46:59;10.15;;;6.47;;
59294;SDS011;45067;44.654;20.200;2022-09-17T08:57:41;12.77;;;8.48;;
59294;SDS011;45067;44.654;20.200;2022-09-17T09:00:10;22.40;;;14.20;;
59294;SDS011;45067;44.654;20.200;2022-09-17T09:05:14;11.05;;;6.47;;
59294;SDS011;45067;44.654;20.200;2022-09-17T09:07:43;8.32;;;5.65;;
59294;SDS011;45067;44.654;20.200;2022-09-17T09:12:43;10.43;;;6.18;;
59294;SDS011;45067;44.654;20.200;2022-09-17T09:17:54;9.50;;;6.20;;
59294;SDS011;45067;44.654;20.200;2022-09-17T09:20:27;11.75;;;8.60;;
59294;SDS011;45067;44.654;20.200;2022-09-17T09:31:24;10.20;;;7.28;;
59294;SDS011;45067;44.654;20.200;2022-09-17T09:33:54;9.02;;;6.50;;
59294;SDS011;45067;44.654;20.200;2022-09-17T09:36:20;9.52;;;6.45;;
59294;SDS011;45067;44.654;20.200;2022-09-17T09:41:38;8.93;;;6.03;;
59294;SDS011;45067;44.654;20.200;2022-09-17T09:44:11;7.60;;;6.00;;
59294;SDS011;45067;44.654;20.200;2022-09-17T09:49:11;10.10;;;6.65;;
59294;SDS011;45067;44.654;20.200;2022-09-17T09:57:34;9.30;;;7.05;;
59294;SDS011;45067;44.654;20.200;2022-09-17T10:02:45;9.25;;;6.95;;
59294;SDS011;45067;44.654;20.200;2022-09-17T10:05:12;13.40;;;9.30;;
59294;SDS011;45067;44.654;20.200;2022-09-17T10:07:44;9.38;;;6.88;;
59294;SDS011;45067;44.654;20.200;2022-09-17T10:10:22;14.32;;;9.55;;
59294;SDS011;45067;44.654;20.200;2022-09-17T10:12:56;24.05;;;16.50;;
59294;SDS011;45067;44.654;20.200;2022-09-17T10:15:29;11.20;;;8.52;;
59294;SDS011;45067;44.654;20.200;2022-09-17T10:18:15;9.20;;;6.30;;
59294;SDS011;45067;44.654;20.200;2022-09-17T10:20:48;9.18;;;6.40;;
59294;SDS011;45067;44.654;20.200;2022-09-17T10:23:14;6.97;;;5.78;;
59294;SDS011;45067;44.654;20.200;2022-09-17T10:25:41;11.10;;;7.47;;
59294;SDS011;45067;44.654;20.200;2022-09-17T10:28:22;9.45;;;6.53;;
59294;SDS011;45067;44.654;20.200;2022-09-17T10:30:56;14.32;;;10.20;;
59294;SDS011;45067;44.654;20.200;2022-09-17T10:33:26;20.40;;;14.90;;
59294;SDS011;45067;44.654;20.200;2022-09-17T10:35:53;18.58;;;13.95;;
59294;SDS011;45067;44.654;20.200;2022-09-17T10:38:30;15.43;;;11.00;;
59294;SDS011;45067;44.654;20.200;2022-09-17T10:41:09;17.55;;;13.35;;
59294;SDS011;45067;44.654;20.200;2022-09-17T10:43:36;13.45;;;9.43;;
59294;SDS011;45067;44.654;20.200;2022-09-17T10:46:02;14.38;;;9.45;;
59294;SDS011;45067;44.654;20.200;2022-09-17T10:48:32;14.98;;;12.13;;
59294;SDS011;45067;44.654;20.200;2022-09-17T10:53:27;13.95;;;9.63;;
59294;SDS011;45067;44.654;20.200;2022-09-17T11:09:52;23.90;;;18.20;;
59294;SDS011;45067;44.654;20.200;2022-09-17T11:14:15;25.88;;;17.98;;
59294;SDS011;45067;44.654;20.200;2022-09-17T11:22:17;16.08;;;12.50;;
59294;SDS011;45067;44.654;20.200;2022-09-17T11:25:03;12.00;;;9.68;;
59294;SDS011;45067;44.654;20.200;2022-09-17T11:30:12;12.82;;;9.35;;
59294;SDS011;45067;44.654;20.200;2022-09-17T11:35:19;10.02;;;7.65;;
59294;SDS011;45067;44.654;20.200;2022-09-17T11:43:43;18.48;;;13.63;;
59294;SDS011;45067;44.654;20.200;2022-09-17T11:48:23;22.80;;;16.65;;
59294;SDS011;45067;44.654;20.200;2022-09-17T11:53:30;24.23;;;18.48;;
59294;SDS011;45067;44.654;20.200;2022-09-17T11:58:26;23.45;;;18.05;;
59294;SDS011;45067;44.654;20.200;2022-09-17T12:00:57;20.08;;;14.82;;
59294;SDS011;45067;44.654;20.200;2022-09-17T12:03:36;20.23;;;15.18;;
59294;SDS011;45067;44.654;20.200;2022-09-17T12:06:07;15.85;;;9.85;;
59294;SDS011;45067;44.654;20.200;2022-09-17T12:13:44;17.23;;;12.70;;
59294;SDS011;45067;44.654;20.200;2022-09-17T12:16:20;20.52;;;13.10;;
59294;SDS011;45067;44.654;20.200;2022-09-17T12:18:58;20.40;;;13.65;;
59294;SDS011;45067;44.654;20.200;2022-09-17T12:21:48;16.85;;;11.60;;
59294;SDS011;45067;44.654;20.200;2022-09-17T12:27:08;15.57;;;12.07;;
59294;SDS011;45067;44.654;20.200;2022-09-17T12:34:42;21.77;;;15.50;;
59294;SDS011;45067;44.654;20.200;2022-09-17T12:45:04;15.85;;;11.55;;
59294;SDS011;45067;44.654;20.200;2022-09-17T12:55:30;14.18;;;9.40;;
59294;SDS011;45067;44.654;20.200;2022-09-17T12:58:04;13.68;;;8.15;;
59294;SDS011;45067;44.654;20.200;2022-09-17T13:00:36;12.43;;;8.27;;
59294;SDS011;45067;44.654;20.200;2022-09-17T13:03:17;12.73;;;7.90;;
59294;SDS011;45067;44.654;20.200;2022-09-17T13:14:05;14.35;;;8.60;;
59294;SDS011;45067;44.654;20.200;2022-09-17T13:22:04;10.98;;;7.68;;
59294;SDS011;45067;44.654;20.200;2022-09-17T13:24:23;16.27;;;10.23;;
59294;SDS011;45067;44.654;20.200;2022-09-17T13:26:51;16.85;;;12.35;;
59294;SDS011;45067;44.654;20.200;2022-09-17T13:32:03;21.92;;;14.32;;
59294;SDS011;45067;44.654;20.200;2022-09-17T13:34:30;14.15;;;9.93;;
59294;SDS011;45067;44.654;20.200;2022-09-17T13:36:57;16.20;;;11.93;;
59294;SDS011;45067;44.654;20.200;2022-09-17T13:39:39;24.83;;;17.90;;
59294;SDS011;45067;44.654;20.200;2022-09-17T13:42:08;15.88;;;11.48;;
59294;SDS011;45067;44.654;20.200;2022-09-17T13:44:36;16.42;;;10.90;;
59294;SDS011;45067;44.654;20.200;2022-09-17T13:47:12;14.60;;;11.23;;
59294;SDS011;45067;44.654;20.200;2022-09-17T13:49:43;11.52;;;8.25;;
59294;SDS011;45067;44.654;20.200;2022-09-17T13:52:09;12.40;;;9.55;;
59294;SDS011;45067;44.654;20.200;2022-09-17T13:54:36;11.27;;;8.00;;
59294;SDS011;45067;44.654;20.200;2022-09-17T13:57:04;12.30;;;7.78;;
59294;SDS011;45067;44.654;20.200;2022-09-17T13:59:32;13.13;;;9.50;;
59294;SDS011;45067;44.654;20.200;2022-09-17T14:04:34;13.95;;;9.98;;
59294;SDS011;45067;44.654;20.200;2022-09-17T14:07:00;16.67;;;12.52;;
59294;SDS011;45067;44.654;20.200;2022-09-17T14:12:53;16.77;;;12.20;;
59294;SDS011;45067;44.654;20.200;2022-09-17T14:15:36;17.33;;;12.25;;
59294;SDS011;45067;44.654;20.200;2022-09-17T14:21:17;17.98;;;13.35;;
59294;SDS011;45067;44.654;20.200;2022-09-17T14:31:34;8.57;;;5.75;;
59294;SDS011;45067;44.654;20.200;2022-09-17T14:34:03;7.53;;;5.68;;
59294;SDS011;45067;44.654;20.200;2022-09-17T14:36:33;8.10;;;5.78;;
59294;SDS011;45067;44.654;20.200;2022-09-17T14:39:00;10.25;;;6.47;;
59294;SDS011;45067;44.654;20.200;2022-09-17T14:41:30;30.83;;;22.27;;
59294;SDS011;45067;44.654;20.200;2022-09-17T14:44:03;17.88;;;12.90;;
59294;SDS011;45067;44.654;20.200;2022-09-17T14:49:25;16.25;;;10.30;;
59294;SDS011;45067;44.654;20.200;2022-09-17T14:51:53;14.25;;;9.88;;
59294;SDS011;45067;44.654;20.200;2022-09-17T14:56:52;8.85;;;6.80;;
59294;SDS011;45067;44.654;20.200;2022-09-17T14:59:24;7.38;;;4.65;;
59294;SDS011;45067;44.654;20.200;2022-09-17T15:01:51;7.18;;;4.55;;
59294;SDS011;45067;44.654;20.200;2022-09-17T15:06:44;6.70;;;5.03;;
59294;SDS011;45067;44.654;20.200;2022-09-17T15:09:24;16.40;;;10.77;;
59294;SDS011;45067;44.654;20.200;2022-09-17T15:11:53;9.63;;;5.80;;
59294;SDS011;45067;44.654;20.200;2022-09-17T15:14:21;7.53;;;5.35;;
59294;SDS011;45067;44.654;20.200;2022-09-17T15:16:57;8.25;;;6.05;;
59294;SDS011;45067;44.654;20.200;2022-09-17T15:19:35;8.07;;;5.32;;
59294;SDS011;45067;44.654;20.200;2022-09-17T15:22:03;6.97;;;4.78;;
59294;SDS011;45067;44.654;20.200;2022-09-17T15:27:14;10.18;;;6.65;;
59294;SDS011;45067;44.654;20.200;2022-09-17T15:29:46;8.70;;;5.30;;
59294;SDS011;45067;44.654;20.200;2022-09-17T15:32:14;7.82;;;5.10;;
59294;SDS011;45067;44.654;20.200;2022-09-17T15:34:40;11.90;;;6.68;;
59294;SDS011;45067;44.654;20.200;2022-09-17T15:37:17;10.15;;;6.47;;
59294;SDS011;45067;44.654;20.200;2022-09-17T15:39:48;11.23;;;7.45;;
59294;SDS011;45067;44.654;20.200;2022-09-17T15:42:22;16.15;;;10.77;;
59294;SDS011;45067;44.654;20.200;2022-09-17T15:44:51;11.30;;;7.85;;
59294;SDS011;45067;44.654;20.200;2022-09-17T15:47:32;10.35;;;7.22;;
59294;SDS011;45067;44.654;20.200;2022-09-17T15:50:32;12.00;;;8.02;;
59294;SDS011;45067;44.654;20.200;2022-09-17T15:53:09;11.15;;;7.82;;
59294;SDS011;45067;44.654;20.200;2022-09-17T15:55:45;11.23;;;8.35;;
59294;SDS011;45067;44.654;20.200;2022-09-17T15:58:24;9.50;;;5.57;;
59294;SDS011;45067;44.654;20.200;2022-09-17T16:00:57;12.00;;;7.88;;
59294;SDS011;45067;44.654;20.200;2022-09-17T16:06:37;8.73;;;6.65;;
59294;SDS011;45067;44.654;20.200;2022-09-17T16:08:57;14.13;;;9.35;;
59294;SDS011;45067;44.654;20.200;2022-09-17T16:11:33;10.10;;;7.43;;
59294;SDS011;45067;44.654;20.200;2022-09-17T16:13:59;9.60;;;6.55;;
59294;SDS011;45067;44.654;20.200;2022-09-17T16:16:33;17.00;;;10.00;;
59294;SDS011;45067;44.654;20.200;2022-09-17T16:18:59;12.65;;;9.43;;
59294;SDS011;45067;44.654;20.200;2022-09-17T16:21:25;14.00;;;10.02;;
59294;SDS011;45067;44.654;20.200;2022-09-17T16:23:58;12.85;;;8.35;;
59294;SDS011;45067;44.654;20.200;2022-09-17T16:26:27;8.55;;;6.35;;
59294;SDS011;45067;44.654;20.200;2022-09-17T16:28:54;8.23;;;5.60;;
59294;SDS011;45067;44.654;20.200;2022-09-17T16:31:21;6.90;;;5.28;;
59294;SDS011;45067;44.654;20.200;2022-09-17T16:33:48;7.45;;;4.90;;
59294;SDS011;45067;44.654;20.200;2022-09-17T16:36:15;5.57;;;4.32;;
59294;SDS011;45067;44.654;20.200;2022-09-17T16:41:33;5.85;;;4.43;;
59294;SDS011;45067;44.654;20.200;2022-09-17T16:43:59;6.57;;;4.05;;
59294;SDS011;45067;44.654;20.200;2022-09-17T16:46:25;6.88;;;3.60;;
59294;SDS011;45067;44.654;20.200;2022-09-17T16:48:51;6.47;;;4.10;;
59294;SDS011;45067;44.654;20.200;2022-09-17T16:51:17;6.05;;;3.47;;
59294;SDS011;45067;44.654;20.200;2022-09-17T16:53:53;8.27;;;4.95;;
59294;SDS011;45067;44.654;20.200;2022-09-17T16:56:21;7.15;;;3.60;;
59294;SDS011;45067;44.654;20.200;2022-09-17T16:58:47;5.90;;;3.42;;
59294;SDS011;45067;44.654;20.200;2022-09-17T17:01:14;5.15;;;3.20;;
59294;SDS011;45067;44.654;20.200;2022-09-17T17:03:40;6.28;;;3.83;;
59294;SDS011;45067;44.654;20.200;2022-09-17T17:06:16;6.22;;;4.00;;
59294;SDS011;45067;44.654;20.200;2022-09-17T17:08:42;7.22;;;4.10;;
59294;SDS011;45067;44.654;20.200;2022-09-17T17:11:08;6.18;;;3.85;;
59294;SDS011;45067;44.654;20.200;2022-09-17T17:13:34;4.53;;;3.03;;
59294;SDS011;45067;44.654;20.200;2022-09-17T17:16:04;7.25;;;3.42;;
59294;SDS011;45067;44.654;20.200;2022-09-17T17:18:30;6.07;;;3.40;;
59294;SDS011;45067;44.654;20.200;2022-09-17T17:21:02;4.50;;;3.08;;
59294;SDS011;45067;44.654;20.200;2022-09-17T17:23:29;4.78;;;3.08;;
59294;SDS011;45067;44.654;20.200;2022-09-17T17:25:58;6.32;;;3.25;;
59294;SDS011;45067;44.654;20.200;2022-09-17T17:28:24;5.78;;;3.33;;
59294;SDS011;45067;44.654;20.200;2022-09-17T17:30:51;5.13;;;3.20;;
59294;SDS011;45067;44.654;20.200;2022-09-17T17:33:17;5.95;;;3.40;;
59294;SDS011;45067;44.654;20.200;2022-09-17T17:35:43;5.70;;;2.97;;
59294;SDS011;45067;44.654;20.200;2022-09-17T17:38:10;6.85;;;3.15;;
59294;SDS011;45067;44.654;20.200;2022-09-17T17:40:36;6.35;;;3.40;;
59294;SDS011;45067;44.654;20.200;2022-09-17T17:43:02;5.82;;;3.30;;
59294;SDS011;45067;44.654;20.200;2022-09-17T17:45:28;4.90;;;3.42;;
59294;SDS011;45067;44.654;20.200;2022-09-17T17:47:54;6.15;;;3.42;;
59294;SDS011;45067;44.654;20.200;2022-09-17T17:50:20;6.13;;;3.40;;
59294;SDS011;45067;44.654;20.200;2022-09-17T17:52:46;4.78;;;3.40;;
59294;SDS011;45067;44.654;20.200;2022-09-17T17:55:18;5.13;;;3.13;;
59294;SDS011;45067;44.654;20.200;2022-09-17T17:57:44;8.30;;;4.00;;
59294;SDS011;45067;44.654;20.200;2022-09-17T18:00:10;6.78;;;3.50;;
59294;SDS011;45067;44.654;20.200;2022-09-17T18:02:37;5.97;;;3.67;;
59294;SDS011;45067;44.654;20.200;2022-09-17T18:05:03;7.20;;;3.85;;
59294;SDS011;45067;44.654;20.200;2022-09-17T18:07:30;9.95;;;4.60;;
59294;SDS011;45067;44.654;20.200;2022-09-17T18:09:56;5.55;;;3.40;;
59294;SDS011;45067;44.654;20.200;2022-09-17T18:12:22;3.95;;;2.63;;
59294;SDS011;45067;44.654;20.200;2022-09-17T18:14:48;4.65;;;2.80;;